Главная страница
METAR-TAF:

METAR-TAF

Аэропорты :

Берген, Норвегия

широта: 60-17N, долгота: 005-14E, высота над уровнем моря: 5 м

Текущие метеонаблюдения

Эта сводка был подготовлена 15 минут назад, в 10:20 UTC
Ветер 5 Узел от юго-юго-восточный
Температура 17°C
Влажность 94%
Давление 1017 hPa
Видимость 10 км и более
небольшая облачность на высоте 500 фута
Отдельные облака на высоте 1000 фута
Рассеянная облачность на высоте 1200 фута

METAR: ENBR 061020Z 15005KT 9999 FEW005 SCT010 BKN012 17/16 Q1017 BECMG BKN015 RMK WIND 1200FT 16011KT

Время: 12:35 (10:35 UTC)

Прогноз

Прогноз действительный с 06-го 06 UTC до 07-го 06 UTC
Ветер 8 Узел от юго-юго-восточный
Видимость: 8000 м
Отдельные облака на высоте 500 фута
Рассеянная облачность на высоте 1500 фута
небольшой морось
временами
С 06-го 06 UTC до 06-го 11 UTC
Видимость: 2000 м
Рассеянная облачность на высоте 400 фута
Морось, дождь, дымка

TAF: ENBR 0606/0706 16008KT 8000 -DZ SCT005 BKN015 TEMPO 0606/0611 2000 DZRA BR BKN004

Метеонаблюдения и прогнозы для более 4000 аэропортов (сводки METAR и TAF).

Имеющиеся станции представлены на карте желтыми и красными точками.

Чтобы увидеть название станции, наведите на нее мышь.

Затем щелкните, чтобы увидеть метеонаблюдения и метеопрогнозы.

Управление картой: чтобы увеличить масштаб, щелкните зеленые кнопки с черным крестиком; чтобы уменьшить масштаб, щелкните зеленую кнопку с тире; для просмотра соседних карт щелкайте зеленые стрелки.


METAR-TAF: